Time,TemperatureF,DewpointF,PressureIn,WindDirection,WindDirectionDegrees,WindSpeedMPH,WindSpeedGustMPH,Humidity,HourlyPrecipIn,Conditions,Clouds,dailyrainin,SoftwareType,DateUTC
2013-02-17 00:00:00,14.8,10.9,30.17,West,280,4.0,6.0,84,0.00,,---,0.00,VWS V14.00,2013-02-17 05:00:00,
2013-02-17 00:30:00,14.7,10.8,30.16,West,281,3.0,6.0,84,0.00,,---,0.00,VWS V14.00,2013-02-17 05:30:00,
2013-02-17 01:00:00,14.8,10.3,30.17,West,277,4.0,6.0,82,0.00,,---,0.00,VWS V14.00,2013-02-17 06:00:00,
2013-02-17 01:30:00,14.6,10.1,30.16,West,266,4.0,7.0,82,0.00,,---,0.00,VWS V14.00,2013-02-17 06:30:00,
2013-02-17 02:00:00,14.7,10.2,30.16,WNW,288,4.0,7.0,82,0.00,,---,0.00,VWS V14.00,2013-02-17 07:00:00,
2013-02-17 02:30:00,14.8,10.3,30.17,WNW,288,5.0,8.0,82,0.00,,---,0.00,VWS V14.00,2013-02-17 07:30:00,
2013-02-17 03:00:00,14.8,10.3,30.17,WNW,286,3.0,10.0,82,0.00,,---,0.00,VWS V14.00,2013-02-17 08:00:00,
2013-02-17 03:30:00,14.9,10.9,30.17,WNW,288,6.0,8.0,84,0.00,,---,0.00,VWS V14.00,2013-02-17 08:30:00,
2013-02-17 04:00:00,14.8,10.6,30.17,WNW,286,6.0,9.0,83,0.00,,---,0.00,VWS V14.00,2013-02-17 09:00:00,
2013-02-17 04:30:00,14.3,9.8,30.17,WNW,284,4.0,8.0,82,0.00,,---,0.00,VWS V14.00,2013-02-17 09:30:00,
2013-02-17 05:00:00,13.8,9.6,30.18,West,274,1.0,6.0,83,0.00,,---,0.00,VWS V14.00,2013-02-17 10:00:00,
2013-02-17 05:30:00,13.5,9.3,30.19,NW,312,1.0,5.0,83,0.00,,---,0.00,VWS V14.00,2013-02-17 10:30:00,
2013-02-17 06:00:00,13.2,9.3,30.20,WNW,287,2.0,4.0,84,0.00,,---,0.00,VWS V14.00,2013-02-17 11:00:00,
2013-02-17 06:30:00,13.2,9.6,30.21,WNW,285,1.0,4.0,85,0.00,,---,0.00,VWS V14.00,2013-02-17 11:30:00,
2013-02-17 07:00:00,12.4,8.8,30.22,WNW,287,1.0,3.0,85,0.00,,---,0.00,VWS V14.00,2013-02-17 12:00:00,
2013-02-17 07:30:00,12.0,8.9,30.23,WSW,253,1.0,3.0,87,0.00,,---,0.00,VWS V14.00,2013-02-17 12:30:00,
2013-02-17 08:00:00,12.1,8.7,30.23,WSW,249,0.0,3.0,86,0.00,,---,0.00,VWS V14.00,2013-02-17 13:00:00,
2013-02-17 08:30:00,12.7,9.3,30.24,SW,225,0.0,2.0,86,0.00,,---,0.00,VWS V14.00,2013-02-17 13:30:00,
2013-02-17 09:00:00,14.4,9.9,30.25,NW,304,2.0,5.0,82,0.00,,---,0.00,VWS V14.00,2013-02-17 14:00:00,
2013-02-17 09:30:00,15.9,11.1,30.25,West,271,0.0,3.0,81,0.00,,---,0.00,VWS V14.00,2013-02-17 14:30:00,
2013-02-17 10:00:00,17.5,12.1,30.26,West,272,0.0,2.0,79,0.00,,---,0.00,VWS V14.00,2013-02-17 15:00:00,
2013-02-17 10:30:00,18.8,13.7,30.26,West,281,0.0,3.0,80,0.00,,---,0.00,VWS V14.00,2013-02-17 15:30:00,
2013-02-17 11:00:00,20.2,13.6,30.26,North,354,0.0,2.0,75,0.00,,---,0.00,VWS V14.00,2013-02-17 16:00:00,
2013-02-17 11:30:00,21.2,12.6,30.26,West,269,0.0,3.0,69,0.00,,---,0.00,VWS V14.00,2013-02-17 16:30:00,
2013-02-17 12:00:00,22.9,12.9,30.27,WSW,256,5.0,6.0,65,0.00,,---,0.00,VWS V14.00,2013-02-17 17:00:00,
2013-02-17 12:30:00,23.8,13.4,30.26,NNE,30,3.0,7.0,64,0.00,,---,0.00,VWS V14.00,2013-02-17 17:30:00,
2013-02-17 13:00:00,24.1,13.3,30.24,SSW,204,2.0,5.0,63,0.00,,---,0.00,VWS V14.00,2013-02-17 18:00:00,
2013-02-17 13:30:00,26.1,14.1,30.24,NW,315,2.0,6.0,60,0.00,,---,0.00,VWS V14.00,2013-02-17 18:30:00,
2013-02-17 14:00:00,26.2,13.1,30.24,West,270,2.0,6.0,57,0.00,,---,0.00,VWS V14.00,2013-02-17 19:00:00,
2013-02-17 14:30:00,26.1,13.0,30.24,West,270,2.0,7.0,57,0.00,,---,0.00,VWS V14.00,2013-02-17 19:30:00,
2013-02-17 15:00:00,27.1,12.7,30.23,West,270,4.0,10.0,54,0.00,,---,0.00,VWS V14.00,2013-02-17 20:00:00,
2013-02-17 15:30:00,28.2,14.5,30.22,West,270,4.0,12.0,56,0.00,,---,0.00,VWS V14.00,2013-02-17 20:30:00,
2013-02-17 16:00:00,28.0,14.3,30.22,West,270,6.0,13.0,56,0.00,,---,0.00,VWS V14.00,2013-02-17 21:00:00,
2013-02-17 16:30:00,30.0,14.1,30.21,SW,235,3.0,5.0,51,0.00,,---,0.00,VWS V14.01,2013-02-17 21:30:00,
2013-02-17 17:00:00,29.8,14.8,30.21,SW,222,1.0,9.0,53,0.00,,---,0.00,VWS V14.00,2013-02-17 22:00:00,
2013-02-17 17:30:00,30.0,14.1,30.21,SW,235,3.0,5.0,51,0.00,,---,0.00,VWS V14.00,2013-02-17 22:30:00,
2013-02-17 18:00:00,28.5,13.1,30.20,South,180,1.0,6.0,52,0.00,,---,0.00,VWS V14.00,2013-02-17 23:00:00,
2013-02-17 18:30:00,25.9,12.8,30.20,SW,218,0.0,4.0,57,0.00,,---,0.00,VWS V14.00,2013-02-17 23:30:00,
2013-02-17 19:00:00,24.8,12.5,30.20,SSE,153,0.0,3.0,59,0.00,,---,0.00,VWS V14.00,2013-02-18 00:00:00,
2013-02-17 19:30:00,24.2,13.4,30.19,SE,129,0.0,2.0,63,0.00,,---,0.00,VWS V14.00,2013-02-18 00:30:00,
2013-02-17 20:00:00,23.2,14.2,30.19,ESE,120,1.0,2.0,68,0.00,,---,0.00,VWS V14.00,2013-02-18 01:00:00,
2013-02-17 20:30:00,22.9,14.3,30.20,ESE,117,1.0,2.0,69,0.00,,---,0.00,VWS V14.00,2013-02-18 01:30:00,
2013-02-17 21:00:00,21.9,14.6,30.19,ESE,120,0.0,1.0,73,0.00,,---,0.00,VWS V14.00,2013-02-18 02:00:00,
2013-02-17 21:30:00,22.0,14.7,30.19,SE,132,2.0,3.0,73,0.00,,---,0.00,VWS V14.00,2013-02-18 02:30:00,
2013-02-17 22:00:00,22.5,14.2,30.20,ESE,120,1.0,4.0,70,0.00,,---,0.00,VWS V14.00,2013-02-18 03:00:00,
2013-02-17 22:30:00,22.3,14.7,30.19,ESE,108,1.0,3.0,72,0.00,,---,0.00,VWS V14.00,2013-02-18 03:30:00,
2013-02-17 23:00:00,22.8,14.5,30.18,ESE,118,1.0,4.0,70,0.00,,---,0.00,VWS V14.00,2013-02-18 04:00:00,
2013-02-17 23:30:00,23.6,14.6,30.18,SSE,150,2.0,5.0,68,0.00,,---,0.00,VWS V14.00,2013-02-18 04:30:00,